createdAt,value
2018-01-16T00:00:04.711Z,99065.59
2018-01-16T00:00:18.442Z,99061.12
2018-01-16T00:00:32.282Z,99062.13
2018-01-16T00:00:46.062Z,99056.42
2018-01-16T00:00:59.947Z,99059.48
2018-01-16T00:01:13.587Z,99062.54
2018-01-16T00:01:27.249Z,99057.67
2018-01-16T00:01:41.151Z,99061.64
2018-01-16T00:01:54.991Z,99062.95
2018-01-16T00:02:08.641Z,99062.54
2018-01-16T00:02:22.340Z,99058.58
2018-01-16T00:02:36.060Z,99062.05
2018-01-16T00:02:49.848Z,99059.41
2018-01-16T00:03:03.453Z,99060.38
2018-01-16T00:03:17.147Z,99064.77
2018-01-16T00:03:31.017Z,99063.44
2018-01-16T00:03:44.668Z,99070.53
2018-01-16T00:03:58.064Z,99067.47
2018-01-16T00:04:11.718Z,99065.25
2018-01-16T00:04:25.455Z,99068.80
2018-01-16T00:04:39.109Z,99071.85
2018-01-16T00:04:52.683Z,99074.98
2018-01-16T00:05:06.483Z,99067.47
2018-01-16T00:05:20.284Z,99073.66
2018-01-16T00:05:33.958Z,99069.28
2018-01-16T00:05:47.708Z,99070.59
2018-01-16T00:06:01.523Z,99071.02
2018-01-16T00:06:15.337Z,99077.20
2018-01-16T00:06:29.231Z,99071.92
2018-01-16T00:06:43.004Z,99073.72
2018-01-16T00:06:56.828Z,99072.41
2018-01-16T00:07:10.479Z,99076.78
2018-01-16T00:07:24.335Z,99068.44
2018-01-16T00:07:38.175Z,99077.27
2018-01-16T00:07:51.973Z,99073.72
2018-01-16T00:08:05.667Z,99081.58
2018-01-16T00:08:19.410Z,99075.05
2018-01-16T00:08:33.228Z,99072.41
2018-01-16T00:08:47.170Z,99076.85
2018-01-16T00:09:00.823Z,99072.50
2018-01-16T00:09:14.631Z,99079.49
2018-01-16T00:09:28.526Z,99075.53
2018-01-16T00:09:42.470Z,99076.85
2018-01-16T00:09:56.365Z,99078.59
2018-01-16T00:10:10.007Z,99086.52
2018-01-16T00:10:23.873Z,99084.39
2018-01-16T00:10:37.691Z,99076.47
2018-01-16T00:10:51.453Z,99083.55
2018-01-16T00:11:05.128Z,99084.88
2018-01-16T00:11:18.887Z,99082.65
2018-01-16T00:11:32.620Z,99084.45
2018-01-16T00:11:46.475Z,99080.49
2018-01-16T00:12:00.339Z,99078.75
2018-01-16T00:12:14.098Z,99084.45
2018-01-16T00:12:27.717Z,99082.23
2018-01-16T00:12:41.539Z,99082.30
2018-01-16T00:12:55.279Z,99076.18
2018-01-16T00:13:09.069Z,99076.11
2018-01-16T00:13:22.716Z,99076.11
2018-01-16T00:13:36.387Z,99077.85
2018-01-16T00:13:50.103Z,99077.92
2018-01-16T00:14:03.983Z,99077.44
2018-01-16T00:14:17.872Z,99077.92
2018-01-16T00:14:31.514Z,99084.03
2018-01-16T00:14:45.396Z,99080.98
2018-01-16T00:14:59.015Z,99077.08
2018-01-16T00:15:12.654Z,99083.20
2018-01-16T00:15:26.303Z,99085.42
2018-01-16T00:15:40.130Z,99083.20
2018-01-16T00:15:53.907Z,99092.45
2018-01-16T00:16:07.670Z,99091.12
2018-01-16T00:16:21.459Z,99085.42
2018-01-16T00:16:35.124Z,99088.97
2018-01-16T00:16:48.861Z,99092.52
2018-01-16T00:17:02.702Z,99095.57
2018-01-16T00:17:16.643Z,99092.03
2018-01-16T00:17:30.323Z,99084.59
2018-01-16T00:17:44.130Z,99089.45
2018-01-16T00:17:57.783Z,99095.16
2018-01-16T00:18:11.404Z,99089.45
2018-01-16T00:18:25.210Z,99094.31
2018-01-16T00:18:38.998Z,99095.57
2018-01-16T00:18:52.657Z,99093.00
2018-01-16T00:19:06.366Z,99097.80
2018-01-16T00:19:20.192Z,99096.47
2018-01-16T00:19:33.831Z,99106.20
2018-01-16T00:19:47.568Z,99100.02
2018-01-16T00:20:01.259Z,99096.54
2018-01-16T00:20:15.227Z,99099.60
2018-01-16T00:20:29.233Z,99106.20
2018-01-16T00:20:42.990Z,99101.83
2018-01-16T00:20:57.836Z,99109.36
2018-01-16T00:21:11.587Z,99101.83
2018-01-16T00:21:25.346Z,99105.72
2018-01-16T00:21:39.215Z,99114.12
2018-01-16T00:21:52.936Z,99115.86
2018-01-16T00:22:06.703Z,99106.20
2018-01-16T00:22:26.065Z,99107.63
2018-01-16T00:22:41.532Z,99111.06
2018-01-16T00:22:55.480Z,99108.04
2018-01-16T00:23:09.236Z,99109.75
2018-01-16T00:23:23.162Z,99107.52
2018-01-16T00:23:37.158Z,99109.36
2018-01-16T00:23:51.041Z,99113.70
2018-01-16T00:24:05.130Z,99113.70
2018-01-16T00:24:19.015Z,99109.75
2018-01-16T00:24:32.729Z,99105.30
2018-01-16T00:24:46.503Z,99107.52
2018-01-16T00:25:00.303Z,99103.98
2018-01-16T00:25:14.097Z,99108.42
2018-01-16T00:25:27.850Z,99107.52
2018-01-16T00:25:41.507Z,99114.96
2018-01-16T00:25:55.331Z,99111.06
2018-01-16T00:26:09.625Z,99107.52
2018-01-16T00:26:24.051Z,99110.58
2018-01-16T00:26:38.352Z,99115.86
2018-01-16T00:26:51.997Z,99110.16
2018-01-16T00:27:05.693Z,99109.27
2018-01-16T00:27:19.420Z,99107.52
2018-01-16T00:27:33.202Z,99113.64
2018-01-16T00:27:47.073Z,99119.34
2018-01-16T00:28:00.969Z,99121.56
2018-01-16T00:28:14.839Z,99112.32
2018-01-16T00:28:28.675Z,99117.61
2018-01-16T00:28:42.615Z,99107.94
2018-01-16T00:28:56.420Z,99109.68
2018-01-16T00:29:10.068Z,99109.68
2018-01-16T00:29:23.778Z,99119.34
2018-01-16T00:29:37.508Z,99107.94
2018-01-16T00:29:51.487Z,99114.06
2018-01-16T00:30:05.231Z,99113.22
2018-01-16T00:30:18.910Z,99120.25
2018-01-16T00:30:32.705Z,99112.73
2018-01-16T00:30:46.448Z,99112.26
2018-01-16T00:31:00.203Z,99113.22
2018-01-16T00:31:13.989Z,99117.61
2018-01-16T00:31:27.861Z,99111.48
2018-01-16T00:31:41.780Z,99119.83
2018-01-16T00:31:55.599Z,99115.86
2018-01-16T00:32:09.367Z,99117.61
2018-01-16T00:32:22.984Z,99116.35
2018-01-16T00:32:36.883Z,99116.77
2018-01-16T00:32:50.608Z,99118.09
2018-01-16T00:33:04.588Z,99117.28
2018-01-16T00:33:18.357Z,99117.67
2018-01-16T00:33:32.201Z,99118.61
2018-01-16T00:33:45.838Z,99119.92
2018-01-16T00:33:59.451Z,99121.63
2018-01-16T00:34:13.193Z,99116.35
2018-01-16T00:34:26.986Z,99124.27
2018-01-16T00:34:40.723Z,99122.05
2018-01-16T00:34:54.404Z,99131.30
2018-01-16T00:35:08.344Z,99119.41
2018-01-16T00:35:22.224Z,99124.27
2018-01-16T00:35:35.971Z,99117.67
2018-01-16T00:35:49.746Z,99122.15
2018-01-16T00:36:03.615Z,99127.34
2018-01-16T00:36:17.278Z,99122.47
2018-01-16T00:36:31.100Z,99122.95
2018-01-16T00:36:44.949Z,99123.38
2018-01-16T00:36:58.687Z,99118.09
2018-01-16T00:37:12.578Z,99111.91
2018-01-16T00:37:26.371Z,99122.47
2018-01-16T00:37:40.240Z,99116.28
2018-01-16T00:37:53.902Z,99112.32
2018-01-16T00:38:07.795Z,99114.55
2018-01-16T00:38:21.603Z,99108.42
2018-01-16T00:38:35.312Z,99107.04
2018-01-16T00:38:49.331Z,99115.45
2018-01-16T00:39:03.263Z,99117.19
2018-01-16T00:39:16.870Z,99110.16
2018-01-16T00:39:30.547Z,99112.80
2018-01-16T00:39:44.231Z,99112.32
2018-01-16T00:39:57.953Z,99124.20
2018-01-16T00:40:11.627Z,99117.19
2018-01-16T00:40:25.423Z,99114.12
2018-01-16T00:40:39.036Z,99122.05
2018-01-16T00:40:52.855Z,99120.25
2018-01-16T00:41:06.602Z,99106.14
2018-01-16T00:41:20.395Z,99114.55
2018-01-16T00:41:34.220Z,99104.40
2018-01-16T00:41:48.052Z,99107.11
2018-01-16T00:42:01.900Z,99113.22
2018-01-16T00:42:15.667Z,99092.58
2018-01-16T00:42:29.373Z,99101.34
2018-01-16T00:42:43.099Z,99100.50
2018-01-16T00:42:56.782Z,99096.54
2018-01-16T00:43:10.528Z,99099.19
2018-01-16T00:43:24.284Z,99093.52
2018-01-16T00:43:37.904Z,99090.88
2018-01-16T00:43:51.651Z,99088.72
2018-01-16T00:44:05.410Z,99097.06
2018-01-16T00:44:19.286Z,99086.08
2018-01-16T00:44:33.013Z,99101.92
2018-01-16T00:44:47.001Z,99092.68
2018-01-16T00:45:00.871Z,99086.98
2018-01-16T00:45:14.537Z,99095.80
2018-01-16T00:45:28.243Z,99090.52
2018-01-16T00:45:42.027Z,99098.93
2018-01-16T00:45:55.743Z,99093.64
2018-01-16T00:46:09.487Z,99089.75
2018-01-16T00:46:23.231Z,99094.55
2018-01-16T00:46:36.923Z,99092.81
2018-01-16T00:46:50.883Z,99097.26
2018-01-16T00:47:04.559Z,99098.58
2018-01-16T00:47:18.426Z,99098.16
2018-01-16T00:47:32.316Z,99097.74
2018-01-16T00:47:45.981Z,99091.56
2018-01-16T00:47:59.757Z,99100.90
2018-01-16T00:48:13.559Z,99103.02
2018-01-16T00:48:27.199Z,99102.64
2018-01-16T00:48:41.033Z,99102.22
2018-01-16T00:48:54.752Z,99098.74
2018-01-16T00:49:08.587Z,99100.48
2018-01-16T00:49:22.227Z,99099.16
2018-01-16T00:49:35.973Z,99096.52
2018-01-16T00:49:49.752Z,99101.87
2018-01-16T00:50:03.467Z,99097.91
2018-01-16T00:50:17.161Z,99105.41
2018-01-16T00:50:30.936Z,99103.19
2018-01-16T00:50:44.699Z,99097.91
2018-01-16T00:50:58.495Z,99107.64
2018-01-16T00:51:12.331Z,99105.90
2018-01-16T00:51:26.143Z,99101.94
2018-01-16T00:51:39.771Z,99101.94
2018-01-16T00:51:53.544Z,99104.58
2018-01-16T00:52:07.275Z,99099.30
2018-01-16T00:52:20.958Z,99098.46
2018-01-16T00:52:34.672Z,99107.22
2018-01-16T00:52:48.419Z,99105.06
2018-01-16T00:53:02.132Z,99105.06
2018-01-16T00:53:16.022Z,99101.52
2018-01-16T00:53:29.849Z,99102.42
2018-01-16T00:53:43.522Z,99102.00
2018-01-16T00:53:57.199Z,99102.00
2018-01-16T00:54:10.980Z,99108.19
2018-01-16T00:54:24.763Z,99102.42
2018-01-16T00:54:38.617Z,99111.77
2018-01-16T00:54:52.367Z,99104.23
2018-01-16T00:55:06.035Z,99106.48
2018-01-16T00:55:19.782Z,99107.80
2018-01-16T00:55:33.463Z,99106.87
2018-01-16T00:55:47.238Z,99107.80
2018-01-16T00:56:00.898Z,99113.08
2018-01-16T00:56:14.731Z,99112.15
2018-01-16T00:56:28.525Z,99111.77
2018-01-16T00:56:42.309Z,99113.56
2018-01-16T00:56:55.907Z,99110.51
2018-01-16T00:57:09.720Z,99104.74
2018-01-16T00:57:23.466Z,99108.70
2018-01-16T00:57:37.095Z,99114.47
2018-01-16T00:57:50.806Z,99112.66
2018-01-16T00:58:04.729Z,99107.87
2018-01-16T00:58:18.661Z,99108.77
2018-01-16T00:58:32.476Z,99110.92
2018-01-16T00:58:46.148Z,99117.59
2018-01-16T00:58:59.813Z,99108.84
2018-01-16T00:59:13.502Z,99116.28
2018-01-16T00:59:27.158Z,99113.64
2018-01-16T00:59:40.863Z,99111.00
2018-01-16T00:59:55.692Z,99112.31
2018-01-16T01:00:09.428Z,99113.70
2018-01-16T01:00:23.146Z,99115.86
2018-01-16T01:00:36.850Z,99119.40
2018-01-16T01:00:50.602Z,99114.53
2018-01-16T01:01:04.234Z,99112.80
2018-01-16T01:01:17.989Z,99115.02
2018-01-16T01:01:31.847Z,99119.40
2018-01-16T01:01:45.535Z,99114.12
2018-01-16T01:01:59.195Z,99112.80
2018-01-16T01:02:12.794Z,99113.70
2018-01-16T01:02:26.440Z,99111.48
2018-01-16T01:02:40.148Z,99115.92
2018-01-16T01:02:53.879Z,99117.59
2018-01-16T01:03:08.511Z,99121.62
2018-01-16T01:03:22.286Z,99122.95
2018-01-16T01:03:36.396Z,99120.72
2018-01-16T01:03:50.328Z,99119.88
2018-01-16T01:04:04.068Z,99118.14
2018-01-16T01:04:17.743Z,99121.62
2018-01-16T01:04:31.367Z,99121.20
2018-01-16T01:04:44.990Z,99122.52
2018-01-16T01:04:58.647Z,99120.30
2018-01-16T01:05:12.342Z,99118.56
2018-01-16T01:05:26.221Z,99118.08
2018-01-16T01:05:40.259Z,99114.19
2018-01-16T01:05:53.919Z,99120.78
2018-01-16T01:06:07.798Z,99126.48
2018-01-16T01:06:21.595Z,99123.36
2018-01-16T01:06:35.458Z,99126.06
2018-01-16T01:06:49.286Z,99120.88
2018-01-16T01:07:03.300Z,99119.88
2018-01-16T01:07:17.074Z,99123.42
2018-01-16T01:07:30.872Z,99116.83
2018-01-16T01:07:44.543Z,99119.05
2018-01-16T01:07:58.259Z,99124.33
2018-01-16T01:08:11.972Z,99128.80
2018-01-16T01:08:25.932Z,99117.83
2018-01-16T01:08:39.664Z,99118.63
2018-01-16T01:08:53.463Z,99113.45
2018-01-16T01:09:07.375Z,99118.31
2018-01-16T01:09:21.055Z,99123.59
2018-01-16T01:09:34.755Z,99122.27
2018-01-16T01:09:48.571Z,99114.83
2018-01-16T01:10:02.330Z,99118.80
2018-01-16T01:10:15.942Z,99121.85
2018-01-16T01:10:29.606Z,99123.66
2018-01-16T01:10:43.263Z,99116.22
2018-01-16T01:10:56.962Z,99124.56
2018-01-16T01:11:10.726Z,99117.55
2018-01-16T01:11:24.390Z,99118.44
2018-01-16T01:11:38.007Z,99121.08
2018-01-16T01:11:51.848Z,99119.34
2018-01-16T01:12:05.857Z,99118.02
2018-01-16T01:12:19.496Z,99117.61
2018-01-16T01:12:33.311Z,99121.56
2018-01-16T01:12:47.130Z,99117.61
2018-01-16T01:13:01.040Z,99118.92
2018-01-16T01:13:14.784Z,99109.27
2018-01-16T01:13:28.443Z,99112.84
2018-01-16T01:13:42.335Z,99118.61
2018-01-16T01:13:56.102Z,99109.84
2018-01-16T01:14:09.838Z,99117.35
2018-01-16T01:14:23.523Z,99118.67
2018-01-16T01:14:37.326Z,99114.71
2018-01-16T01:14:51.257Z,99117.35
2018-01-16T01:15:05.067Z,99114.78
2018-01-16T01:15:18.891Z,99115.20
2018-01-16T01:15:32.663Z,99114.36
2018-01-16T01:15:46.401Z,99116.52
2018-01-16T01:16:00.322Z,99120.06
2018-01-16T01:16:14.083Z,99118.32
2018-01-16T01:16:27.895Z,99116.58
2018-01-16T01:16:41.616Z,99117.00
2018-01-16T01:16:55.306Z,99110.47
2018-01-16T01:17:08.971Z,99113.52
2018-01-16T01:17:22.659Z,99114.04
2018-01-16T01:17:37.428Z,99114.84
2018-01-16T01:17:51.127Z,99117.48
2018-01-16T01:18:04.946Z,99112.20
2018-01-16T01:18:18.703Z,99117.48
2018-01-16T01:18:32.479Z,99114.84
2018-01-16T01:18:46.285Z,99110.98
2018-01-16T01:19:00.029Z,99112.30
2018-01-16T01:19:13.868Z,99109.66
2018-01-16T01:19:27.602Z,99117.16
2018-01-16T01:19:41.479Z,99109.73
2018-01-16T01:19:55.255Z,99106.67
2018-01-16T01:20:08.937Z,99108.89
2018-01-16T01:20:22.712Z,99104.87
2018-01-16T01:20:36.361Z,99110.63
2018-01-16T01:20:50.051Z,99108.05
2018-01-16T01:21:03.914Z,99106.25
2018-01-16T01:21:17.558Z,99104.03
2018-01-16T01:21:31.204Z,99101.87
2018-01-16T01:21:45.051Z,99099.72
2018-01-16T01:21:58.856Z,99105.00
2018-01-16T01:22:12.487Z,99101.03
2018-01-16T01:22:26.138Z,99105.09
2018-01-16T01:22:39.886Z,99106.00
2018-01-16T01:22:53.538Z,99107.38
2018-01-16T01:23:07.283Z,99103.36
2018-01-16T01:23:20.951Z,99102.10
2018-01-16T01:23:34.703Z,99109.61
2018-01-16T01:23:48.513Z,99103.91
2018-01-16T01:24:02.243Z,99104.33
2018-01-16T01:24:15.864Z,99107.03
2018-01-16T01:24:29.567Z,99107.03
2018-01-16T01:24:43.370Z,99101.81
2018-01-16T01:24:57.102Z,99101.02
2018-01-16T01:25:10.903Z,99104.55
2018-01-16T01:25:24.587Z,99104.14
2018-01-16T01:25:38.376Z,99101.50
2018-01-16T01:25:52.139Z,99099.34
2018-01-16T01:26:05.890Z,99103.30
2018-01-16T01:26:19.650Z,99103.72
2018-01-16T01:26:33.523Z,99099.47
2018-01-16T01:26:47.342Z,99095.09
2018-01-16T01:27:00.996Z,99097.31
2018-01-16T01:27:14.672Z,99092.04
2018-01-16T01:27:28.481Z,99096.09
2018-01-16T01:27:42.291Z,99097.90
2018-01-16T01:27:55.995Z,99090.46
2018-01-16T01:28:09.921Z,99097.06
2018-01-16T01:28:23.778Z,99098.38
2018-01-16T01:28:37.519Z,99100.19
2018-01-16T01:28:51.295Z,99099.84
2018-01-16T01:29:05.145Z,99098.12
2018-01-16T01:29:18.938Z,99102.99
2018-01-16T01:29:32.798Z,99109.17
2018-01-16T01:29:46.473Z,99103.96
2018-01-16T01:30:00.303Z,99102.22
2018-01-16T01:30:13.879Z,99106.25
2018-01-16T01:30:27.642Z,99095.75
2018-01-16T01:30:41.549Z,99101.03
2018-01-16T01:30:55.173Z,99102.87
2018-01-16T01:31:08.929Z,99096.33
2018-01-16T01:31:22.628Z,99096.81
2018-01-16T01:31:36.389Z,99092.02
2018-01-16T01:31:50.307Z,99101.33
2018-01-16T01:32:04.128Z,99091.60
2018-01-16T01:32:17.832Z,99096.05
2018-01-16T01:32:31.495Z,99089.55
2018-01-16T01:32:45.101Z,99096.21
2018-01-16T01:32:58.844Z,99086.97
2018-01-16T01:33:12.688Z,99087.45
2018-01-16T01:33:26.380Z,99081.76
2018-01-16T01:33:40.315Z,99092.38
2018-01-16T01:33:54.011Z,99080.98
2018-01-16T01:34:07.864Z,99081.92
2018-01-16T01:34:21.626Z,99079.77
2018-01-16T01:34:35.379Z,99081.16
2018-01-16T01:34:49.211Z,99073.65
2018-01-16T01:35:03.129Z,99073.30
2018-01-16T01:35:16.932Z,99078.58
2018-01-16T01:35:30.708Z,99069.83
2018-01-16T01:35:44.478Z,99073.36
2018-01-16T01:35:58.162Z,99072.95
2018-01-16T01:36:11.851Z,99070.31
2018-01-16T01:36:25.517Z,99067.34
2018-01-16T01:36:39.208Z,99072.20
2018-01-16T01:36:53.132Z,99068.67
2018-01-16T01:37:07.832Z,99068.25
2018-01-16T01:37:21.451Z,99067.00
2018-01-16T01:37:35.151Z,99065.26
2018-01-16T01:37:48.783Z,99064.84
2018-01-16T01:38:03.694Z,99067.16
2018-01-16T01:38:17.424Z,99067.96
2018-01-16T01:38:31.166Z,99068.96
2018-01-16T01:38:44.821Z,99062.36
2018-01-16T01:38:58.830Z,99063.27
2018-01-16T01:39:12.537Z,99067.22
2018-01-16T01:39:26.220Z,99062.50
2018-01-16T01:39:39.870Z,99056.80
2018-01-16T01:39:54.256Z,99056.80
2018-01-16T01:40:07.896Z,99053.33
2018-01-16T01:40:21.669Z,99058.61
2018-01-16T01:40:35.319Z,99062.14
2018-01-16T01:40:49.002Z,99058.19
2018-01-16T01:41:02.793Z,99057.80
2018-01-16T01:41:16.552Z,99058.77
2018-01-16T01:41:30.291Z,99058.70
2018-01-16T01:41:44.087Z,99050.84
2018-01-16T01:41:57.887Z,99057.45
2018-01-16T01:42:11.513Z,99057.52
2018-01-16T01:42:25.117Z,99054.45
2018-01-16T01:42:38.708Z,99050.91
2018-01-16T01:42:52.383Z,99052.72
2018-01-16T01:43:06.042Z,99053.20
2018-01-16T01:43:19.843Z,99050.56
2018-01-16T01:43:33.636Z,99049.73
2018-01-16T01:43:47.473Z,99049.31
2018-01-16T01:44:01.153Z,99053.69
2018-01-16T01:44:14.974Z,99044.94
2018-01-16T01:44:28.780Z,99043.20
2018-01-16T01:44:42.403Z,99042.36
2018-01-16T01:44:56.087Z,99046.25
2018-01-16T01:45:09.942Z,99047.16
2018-01-16T01:45:23.785Z,99049.44
2018-01-16T01:45:37.695Z,99046.32
2018-01-16T01:45:51.563Z,99045.55
2018-01-16T01:46:05.372Z,99046.38
2018-01-16T01:46:19.050Z,99045.48
2018-01-16T01:46:32.725Z,99046.80
2018-01-16T01:46:46.391Z,99042.00
2018-01-16T01:47:00.050Z,99040.69
2018-01-16T01:47:13.919Z,99043.33
2018-01-16T01:47:27.620Z,99037.15
2018-01-16T01:47:41.405Z,99037.63
2018-01-16T01:47:55.319Z,99038.95
2018-01-16T01:48:09.083Z,99041.11
2018-01-16T01:48:22.886Z,99037.63
2018-01-16T01:48:36.808Z,99040.27
2018-01-16T01:48:50.279Z,99041.59
2018-01-16T01:49:10.471Z,99044.71
2018-01-16T01:49:24.881Z,99045.55
2018-01-16T01:49:38.676Z,99045.97
2018-01-16T01:49:52.582Z,99047.70
2018-01-16T01:50:06.430Z,99046.87
2018-01-16T01:50:20.198Z,99041.17
2018-01-16T01:50:33.962Z,99042.91
2018-01-16T01:50:47.698Z,99046.80
2018-01-16T01:51:01.583Z,99046.80
2018-01-16T01:51:15.343Z,99045.00
2018-01-16T01:51:29.015Z,99042.78
2018-01-16T01:51:42.749Z,99048.95
2018-01-16T01:51:56.653Z,99045.84
2018-01-16T01:52:10.428Z,99040.55
2018-01-16T01:52:24.291Z,99047.57
2018-01-16T01:52:37.971Z,99040.97
2018-01-16T01:52:51.849Z,99047.50
2018-01-16T01:53:05.688Z,99044.03
2018-01-16T01:53:19.609Z,99041.74
2018-01-16T01:53:33.335Z,99037.78
2018-01-16T01:53:47.097Z,99039.52
2018-01-16T01:54:00.818Z,99041.27
2018-01-16T01:54:14.569Z,99035.98
2018-01-16T01:54:28.182Z,99036.89
2018-01-16T01:54:41.807Z,99039.45
2018-01-16T01:54:55.507Z,99040.42
2018-01-16T01:55:09.228Z,99036.89
2018-01-16T01:55:24.099Z,99039.04
2018-01-16T01:55:38.104Z,99041.74
2018-01-16T01:55:51.917Z,99043.48
2018-01-16T01:56:05.583Z,99040.42
2018-01-16T01:56:19.264Z,99041.33
2018-01-16T01:56:33.003Z,99038.69
2018-01-16T01:56:46.820Z,99042.65
2018-01-16T01:57:00.547Z,99047.50
2018-01-16T01:57:14.233Z,99046.67
2018-01-16T01:57:27.959Z,99042.30
2018-01-16T01:57:41.785Z,99041.04
2018-01-16T01:57:55.455Z,99048.05
2018-01-16T01:58:09.244Z,99038.89
2018-01-16T01:58:23.024Z,99040.63
2018-01-16T01:58:36.907Z,99050.27
2018-01-16T01:58:50.798Z,99050.70
2018-01-16T01:59:04.651Z,99046.45
2018-01-16T01:59:18.465Z,99048.13
2018-01-16T01:59:32.207Z,99046.45
2018-01-16T01:59:46.099Z,99045.12
2018-01-16T01:59:59.912Z,99056.20
2018-01-16T02:00:13.743Z,99046.97
2018-01-16T02:00:27.545Z,99053.56
2018-01-16T02:00:41.266Z,99050.57
2018-01-16T02:00:55.037Z,99046.61
2018-01-16T02:01:08.907Z,99047.58
2018-01-16T02:01:22.638Z,99049.31
2018-01-16T02:01:36.471Z,99050.70
2018-01-16T02:01:50.111Z,99051.61
2018-01-16T02:02:03.859Z,99050.80
2018-01-16T02:02:17.648Z,99047.74
2018-01-16T02:02:31.882Z,99050.03
2018-01-16T02:02:45.455Z,99047.87
2018-01-16T02:02:59.179Z,99055.79
2018-01-16T02:03:12.815Z,99051.41
2018-01-16T02:03:26.654Z,99050.58
2018-01-16T02:03:40.336Z,99053.22
2018-01-16T02:03:54.169Z,99058.08
2018-01-16T02:04:07.868Z,99053.31
2018-01-16T02:04:21.668Z,99046.72
2018-01-16T02:04:35.327Z,99054.63
2018-01-16T02:04:48.973Z,99054.22
2018-01-16T02:05:02.691Z,99055.95
2018-01-16T02:05:16.427Z,99054.63
2018-01-16T02:05:30.044Z,99053.31
2018-01-16T02:05:43.703Z,99054.63
2018-01-16T02:05:57.344Z,99051.58
2018-01-16T02:06:11.030Z,99052.89
2018-01-16T02:06:24.951Z,99051.58
2018-01-16T02:06:38.683Z,99051.58
2018-01-16T02:06:52.339Z,99045.40
2018-01-16T02:07:06.091Z,99047.10
2018-01-16T02:07:19.776Z,99049.74
2018-01-16T02:07:33.388Z,99047.94
2018-01-16T02:07:47.035Z,99052.38
2018-01-16T02:08:00.706Z,99048.84
2018-01-16T02:08:14.455Z,99043.08
2018-01-16T02:08:48.364Z,99050.09
2018-01-16T02:09:02.136Z,99056.69
2018-01-16T02:09:15.815Z,99053.98
2018-01-16T02:09:30.628Z,99054.47
2018-01-16T02:09:44.343Z,99053.92
2018-01-16T02:09:58.178Z,99048.23
2018-01-16T02:10:11.807Z,99061.84
2018-01-16T02:10:25.540Z,99058.72
2018-01-16T02:10:39.412Z,99050.80
2018-01-16T02:10:53.127Z,99049.55
2018-01-16T02:11:07.077Z,99063.06
2018-01-16T02:11:20.764Z,99051.19
2018-01-16T02:11:34.667Z,99046.74
2018-01-16T02:11:48.411Z,99045.84
2018-01-16T02:12:02.075Z,99051.13
2018-01-16T02:12:15.747Z,99041.89
2018-01-16T02:12:29.419Z,99043.97
2018-01-16T02:12:43.098Z,99047.09
2018-01-16T02:12:56.698Z,99047.09
2018-01-16T02:13:10.379Z,99045.30
2018-01-16T02:13:24.242Z,99046.13
2018-01-16T02:13:37.862Z,99042.08
2018-01-16T02:13:51.584Z,99045.12
2018-01-16T02:14:05.405Z,99045.97
2018-01-16T02:14:19.301Z,99046.38
2018-01-16T02:14:32.959Z,99040.63
2018-01-16T02:14:46.735Z,99042.42
2018-01-16T02:15:00.499Z,99039.72
2018-01-16T02:15:14.147Z,99039.17
2018-01-16T02:15:28.037Z,99044.03
2018-01-16T02:15:41.799Z,99042.65
2018-01-16T02:15:55.643Z,99035.56
2018-01-16T02:16:09.475Z,99036.47
2018-01-16T02:16:23.360Z,99037.30
2018-01-16T02:16:37.216Z,99039.04
2018-01-16T02:16:51.061Z,99041.61
2018-01-16T02:17:04.833Z,99044.67
2018-01-16T02:17:18.598Z,99039.39
2018-01-16T02:17:32.370Z,99045.09
2018-01-16T02:17:46.075Z,99037.59
2018-01-16T02:17:59.908Z,99029.16
2018-01-16T02:18:13.597Z,99026.94
2018-01-16T02:18:27.286Z,99027.77
2018-01-16T02:18:41.856Z,99025.55
2018-01-16T02:18:56.328Z,99023.74
2018-01-16T02:19:10.096Z,99024.64
2018-01-16T02:19:23.985Z,99025.48
2018-01-16T02:19:37.647Z,99017.08
2018-01-16T02:19:51.520Z,99017.92
2018-01-16T02:20:05.367Z,99009.16
2018-01-16T02:20:19.217Z,99014.86
2018-01-16T02:20:33.117Z,99014.77
2018-01-16T02:20:46.934Z,99013.86
2018-01-16T02:21:00.839Z,99011.22
2018-01-16T02:21:14.464Z,99016.08
2018-01-16T02:21:28.133Z,99015.59
2018-01-16T02:21:42.042Z,99015.11
2018-01-16T02:21:55.951Z,99020.39
2018-01-16T02:22:09.652Z,99020.74
2018-01-16T02:22:23.329Z,99020.81
2018-01-16T02:22:37.080Z,99019.48
2018-01-16T02:22:50.683Z,99019.00
2018-01-16T02:23:04.398Z,99022.97
2018-01-16T02:23:18.127Z,99028.73
2018-01-16T02:23:32.029Z,99020.33
2018-01-16T02:23:45.849Z,99013.72
2018-01-16T02:23:59.603Z,99021.16
2018-01-16T02:24:13.399Z,99024.70
2018-01-16T02:24:27.200Z,99020.74
2018-01-16T02:24:40.865Z,99017.27
2018-01-16T02:24:54.599Z,99011.57
2018-01-16T02:25:08.356Z,99017.75
2018-01-16T02:25:22.028Z,99019.48
2018-01-16T02:25:35.943Z,99016.44
2018-01-16T02:25:49.794Z,99019.48
2018-01-16T02:26:03.680Z,99018.17
2018-01-16T02:26:17.499Z,99019.48
2018-01-16T02:26:31.325Z,99009.41
2018-01-16T02:26:45.077Z,99008.09
2018-01-16T02:26:58.844Z,99013.38
2018-01-16T02:27:12.435Z,99021.30
2018-01-16T02:27:26.089Z,99018.66
2018-01-16T02:27:39.744Z,99016.44
2018-01-16T02:27:53.553Z,99021.23
2018-01-16T02:28:07.202Z,99020.81
2018-01-16T02:28:20.995Z,99018.17
2018-01-16T02:28:34.922Z,99013.31
2018-01-16T02:28:48.731Z,99012.05
2018-01-16T02:29:02.574Z,99023.86
2018-01-16T02:29:16.210Z,99012.47
2018-01-16T02:29:30.099Z,99018.23
2018-01-16T02:29:43.879Z,99013.38
2018-01-16T02:29:57.755Z,99010.31
2018-01-16T02:30:11.555Z,99011.64
2018-01-16T02:30:25.375Z,99014.70
2018-01-16T02:30:39.238Z,99019.07
2018-01-16T02:30:53.081Z,99013.38
2018-01-16T02:31:06.972Z,99019.97
2018-01-16T02:31:20.798Z,99016.84
2018-01-16T02:31:34.476Z,99016.84
2018-01-16T02:31:48.340Z,99016.44
2018-01-16T02:32:02.076Z,99018.66
2018-01-16T02:32:16.029Z,99019.97
2018-01-16T02:32:29.715Z,99017.33
2018-01-16T02:32:43.499Z,99023.03
2018-01-16T02:32:57.223Z,99026.98
2018-01-16T02:33:10.998Z,99026.09
2018-01-16T02:33:24.886Z,99026.02
2018-01-16T02:33:38.606Z,99016.78
2018-01-16T02:33:53.243Z,99016.78
2018-01-16T02:34:06.941Z,99023.80
2018-01-16T02:34:20.719Z,99015.95
2018-01-16T02:34:34.662Z,99019.00
2018-01-16T02:34:48.591Z,99019.00
2018-01-16T02:35:02.429Z,99023.80
2018-01-16T02:35:16.066Z,99022.06
2018-01-16T02:35:29.886Z,99024.70
2018-01-16T02:35:44.673Z,99012.83
2018-01-16T02:35:59.431Z,99014.62
2018-01-16T02:36:13.087Z,99013.72
2018-01-16T02:36:26.944Z,99019.42
2018-01-16T02:36:40.693Z,99017.69
2018-01-16T02:36:54.524Z,99018.17
2018-01-16T02:37:08.444Z,99019.42
2018-01-16T02:37:22.137Z,99015.88
2018-01-16T02:37:35.835Z,99019.42
2018-01-16T02:37:49.547Z,99017.20
2018-01-16T02:38:03.387Z,99017.20
2018-01-16T02:38:17.153Z,99009.28
2018-01-16T02:38:30.975Z,99009.70
2018-01-16T02:38:44.839Z,99014.50
2018-01-16T02:38:58.721Z,99010.02
2018-01-16T02:39:12.341Z,99012.24
2018-01-16T02:39:25.999Z,99011.34
2018-01-16T02:39:39.688Z,99017.94
2018-01-16T02:39:53.349Z,99012.66
2018-01-16T02:40:07.213Z,99013.08
2018-01-16T02:40:21.808Z,99012.59
2018-01-16T02:40:35.706Z,99012.17
2018-01-16T02:40:49.375Z,99010.79
2018-01-16T02:41:03.047Z,99000.72
2018-01-16T02:41:16.896Z,99008.63
2018-01-16T02:41:30.743Z,98999.33
2018-01-16T02:41:44.598Z,99005.92
2018-01-16T02:41:58.351Z,99006.83
2018-01-16T02:42:11.981Z,99005.92
2018-01-16T02:42:25.755Z,99009.89